sensor_id;sensor_type;location;lat;lon;timestamp;temperature;humidity
18654;DHT22;9456;47.824;16.228;2023-10-09T00:02:28;9.90;99.90
18654;DHT22;9456;47.824;16.228;2023-10-09T00:04:58;9.90;99.90
18654;DHT22;9456;47.824;16.228;2023-10-09T00:07:27;9.90;99.90
18654;DHT22;9456;47.824;16.228;2023-10-09T00:09:56;9.90;99.90
18654;DHT22;9456;47.824;16.228;2023-10-09T00:12:25;9.90;99.90
18654;DHT22;9456;47.824;16.228;2023-10-09T00:14:54;9.90;99.90
18654;DHT22;9456;47.824;16.228;2023-10-09T00:17:24;9.90;99.90
18654;DHT22;9456;47.824;16.228;2023-10-09T00:19:52;9.90;99.90
18654;DHT22;9456;47.824;16.228;2023-10-09T00:22:21;9.90;99.90
18654;DHT22;9456;47.824;16.228;2023-10-09T00:27:43;9.70;99.90
18654;DHT22;9456;47.824;16.228;2023-10-09T00:30:14;9.90;99.90
18654;DHT22;9456;47.824;16.228;2023-10-09T00:32:43;9.90;99.90
18654;DHT22;9456;47.824;16.228;2023-10-09T00:35:25;9.90;99.90
18654;DHT22;9456;47.824;16.228;2023-10-09T00:38:12;9.90;99.90
18654;DHT22;9456;47.824;16.228;2023-10-09T00:40:46;9.90;99.90
18654;DHT22;9456;47.824;16.228;2023-10-09T00:43:15;9.90;99.90
18654;DHT22;9456;47.824;16.228;2023-10-09T00:45:44;9.90;99.90
18654;DHT22;9456;47.824;16.228;2023-10-09T00:48:13;9.90;99.90
18654;DHT22;9456;47.824;16.228;2023-10-09T00:50:43;9.90;99.90
18654;DHT22;9456;47.824;16.228;2023-10-09T00:53:12;10.00;99.90
18654;DHT22;9456;47.824;16.228;2023-10-09T00:55:41;10.00;99.90
18654;DHT22;9456;47.824;16.228;2023-10-09T00:58:13;10.00;99.90
18654;DHT22;9456;47.824;16.228;2023-10-09T01:00:42;9.90;99.90
18654;DHT22;9456;47.824;16.228;2023-10-09T01:03:19;9.90;99.90
18654;DHT22;9456;47.824;16.228;2023-10-09T01:05:54;9.90;99.90
18654;DHT22;9456;47.824;16.228;2023-10-09T01:08:24;9.90;99.90
18654;DHT22;9456;47.824;16.228;2023-10-09T01:10:54;9.90;99.90
18654;DHT22;9456;47.824;16.228;2023-10-09T01:13:25;9.90;99.90
18654;DHT22;9456;47.824;16.228;2023-10-09T01:15:57;9.90;99.90
18654;DHT22;9456;47.824;16.228;2023-10-09T01:18:26;9.90;99.90
18654;DHT22;9456;47.824;16.228;2023-10-09T01:20:56;9.90;99.90
18654;DHT22;9456;47.824;16.228;2023-10-09T01:28:50;10.00;99.90
18654;DHT22;9456;47.824;16.228;2023-10-09T01:31:19;10.00;99.90
18654;DHT22;9456;47.824;16.228;2023-10-09T01:33:48;10.00;99.90
18654;DHT22;9456;47.824;16.228;2023-10-09T01:36:17;9.90;99.90
18654;DHT22;9456;47.824;16.228;2023-10-09T01:38:46;9.90;99.90
18654;DHT22;9456;47.824;16.228;2023-10-09T01:41:15;9.90;99.90
18654;DHT22;9456;47.824;16.228;2023-10-09T01:43:44;9.90;99.90
18654;DHT22;9456;47.824;16.228;2023-10-09T01:46:13;9.90;99.90
18654;DHT22;9456;47.824;16.228;2023-10-09T01:48:42;9.90;99.90
18654;DHT22;9456;47.824;16.228;2023-10-09T01:51:15;9.90;99.90
18654;DHT22;9456;47.824;16.228;2023-10-09T01:53:45;9.90;99.90
18654;DHT22;9456;47.824;16.228;2023-10-09T01:56:15;9.90;99.90
18654;DHT22;9456;47.824;16.228;2023-10-09T01:58:44;9.80;99.90
18654;DHT22;9456;47.824;16.228;2023-10-09T02:01:14;9.80;99.90
18654;DHT22;9456;47.824;16.228;2023-10-09T02:03:43;9.80;99.90
18654;DHT22;9456;47.824;16.228;2023-10-09T02:06:12;9.80;99.90
18654;DHT22;9456;47.824;16.228;2023-10-09T02:08:54;9.80;99.90
18654;DHT22;9456;47.824;16.228;2023-10-09T02:11:23;9.80;99.90
18654;DHT22;9456;47.824;16.228;2023-10-09T02:14:06;9.80;99.90
18654;DHT22;9456;47.824;16.228;2023-10-09T02:16:34;9.80;99.90
18654;DHT22;9456;47.824;16.228;2023-10-09T02:19:03;9.80;99.90
18654;DHT22;9456;47.824;16.228;2023-10-09T02:21:32;9.80;99.90
18654;DHT22;9456;47.824;16.228;2023-10-09T02:24:03;9.80;99.90
18654;DHT22;9456;47.824;16.228;2023-10-09T02:26:33;9.90;99.90
18654;DHT22;9456;47.824;16.228;2023-10-09T02:29:09;9.90;99.90
18654;DHT22;9456;47.824;16.228;2023-10-09T02:31:37;9.90;99.90
18654;DHT22;9456;47.824;16.228;2023-10-09T02:34:07;9.90;99.90
18654;DHT22;9456;47.824;16.228;2023-10-09T02:36:36;9.90;99.90
18654;DHT22;9456;47.824;16.228;2023-10-09T02:39:06;9.90;99.90
18654;DHT22;9456;47.824;16.228;2023-10-09T02:41:35;9.90;99.90
18654;DHT22;9456;47.824;16.228;2023-10-09T02:44:04;9.90;99.90
18654;DHT22;9456;47.824;16.228;2023-10-09T02:46:34;9.90;99.90
18654;DHT22;9456;47.824;16.228;2023-10-09T02:49:03;9.90;99.90
18654;DHT22;9456;47.824;16.228;2023-10-09T02:51:32;9.90;99.90
18654;DHT22;9456;47.824;16.228;2023-10-09T02:54:01;10.00;99.90
18654;DHT22;9456;47.824;16.228;2023-10-09T02:56:37;10.00;99.90
18654;DHT22;9456;47.824;16.228;2023-10-09T02:59:06;10.00;99.90
18654;DHT22;9456;47.824;16.228;2023-10-09T03:01:36;10.00;99.90
18654;DHT22;9456;47.824;16.228;2023-10-09T03:04:04;10.00;99.90
18654;DHT22;9456;47.824;16.228;2023-10-09T03:06:33;10.00;99.90
18654;DHT22;9456;47.824;16.228;2023-10-09T03:09:02;10.10;99.90
18654;DHT22;9456;47.824;16.228;2023-10-09T03:11:31;10.10;99.90
18654;DHT22;9456;47.824;16.228;2023-10-09T03:14:00;10.10;99.90
18654;DHT22;9456;47.824;16.228;2023-10-09T03:16:29;10.10;99.90
18654;DHT22;9456;47.824;16.228;2023-10-09T03:18:58;10.20;99.90
18654;DHT22;9456;47.824;16.228;2023-10-09T03:21:27;10.20;99.90
18654;DHT22;9456;47.824;16.228;2023-10-09T03:23:56;10.20;99.90
18654;DHT22;9456;47.824;16.228;2023-10-09T03:26:24;10.20;99.90
18654;DHT22;9456;47.824;16.228;2023-10-09T03:28:54;10.20;99.90
18654;DHT22;9456;47.824;16.228;2023-10-09T03:31:22;10.20;99.90
18654;DHT22;9456;47.824;16.228;2023-10-09T03:33:51;10.30;99.90
18654;DHT22;9456;47.824;16.228;2023-10-09T03:36:20;10.30;99.90
18654;DHT22;9456;47.824;16.228;2023-10-09T03:38:49;10.30;99.90
18654;DHT22;9456;47.824;16.228;2023-10-09T03:41:18;10.30;99.90
18654;DHT22;9456;47.824;16.228;2023-10-09T03:43:47;10.30;99.90
18654;DHT22;9456;47.824;16.228;2023-10-09T03:46:15;10.40;99.90
18654;DHT22;9456;47.824;16.228;2023-10-09T03:48:49;10.40;99.90
18654;DHT22;9456;47.824;16.228;2023-10-09T03:51:18;10.50;99.90
18654;DHT22;9456;47.824;16.228;2023-10-09T03:53:50;10.50;99.90
18654;DHT22;9456;47.824;16.228;2023-10-09T03:56:18;10.60;99.90
18654;DHT22;9456;47.824;16.228;2023-10-09T03:58:47;10.60;99.90
18654;DHT22;9456;47.824;16.228;2023-10-09T04:01:16;10.60;99.90
18654;DHT22;9456;47.824;16.228;2023-10-09T04:03:45;10.60;99.90
18654;DHT22;9456;47.824;16.228;2023-10-09T04:06:14;10.60;99.90
18654;DHT22;9456;47.824;16.228;2023-10-09T04:08:43;10.60;99.90
18654;DHT22;9456;47.824;16.228;2023-10-09T04:11:12;10.60;99.90
18654;DHT22;9456;47.824;16.228;2023-10-09T04:13:45;10.60;99.90
18654;DHT22;9456;47.824;16.228;2023-10-09T04:16:14;10.60;99.90
18654;DHT22;9456;47.824;16.228;2023-10-09T04:19:02;10.60;99.90
18654;DHT22;9456;47.824;16.228;2023-10-09T04:21:34;10.60;99.90
18654;DHT22;9456;47.824;16.228;2023-10-09T04:24:04;10.60;99.90
18654;DHT22;9456;47.824;16.228;2023-10-09T04:26:39;10.60;99.90
18654;DHT22;9456;47.824;16.228;2023-10-09T04:29:08;10.60;99.90
18654;DHT22;9456;47.824;16.228;2023-10-09T04:31:37;10.50;99.90
18654;DHT22;9456;47.824;16.228;2023-10-09T04:34:06;10.50;99.90
18654;DHT22;9456;47.824;16.228;2023-10-09T04:36:50;10.60;99.90
18654;DHT22;9456;47.824;16.228;2023-10-09T04:39:19;10.60;99.90
18654;DHT22;9456;47.824;16.228;2023-10-09T04:42:07;10.60;99.90
18654;DHT22;9456;47.824;16.228;2023-10-09T04:44:54;10.50;99.90
18654;DHT22;9456;47.824;16.228;2023-10-09T04:47:47;10.50;99.90
18654;DHT22;9456;47.824;16.228;2023-10-09T04:50:26;10.50;99.90
18654;DHT22;9456;47.824;16.228;2023-10-09T04:53:15;10.40;99.90
18654;DHT22;9456;47.824;16.228;2023-10-09T04:55:53;10.40;99.90
18654;DHT22;9456;47.824;16.228;2023-10-09T04:58:22;10.40;99.90
18654;DHT22;9456;47.824;16.228;2023-10-09T05:00:54;10.40;99.90
18654;DHT22;9456;47.824;16.228;2023-10-09T05:03:33;10.40;99.90
18654;DHT22;9456;47.824;16.228;2023-10-09T05:06:14;10.30;99.90
18654;DHT22;9456;47.824;16.228;2023-10-09T05:08:49;10.30;99.90
18654;DHT22;9456;47.824;16.228;2023-10-09T05:11:18;10.20;99.90
18654;DHT22;9456;47.824;16.228;2023-10-09T05:14:03;10.30;99.90
18654;DHT22;9456;47.824;16.228;2023-10-09T05:16:40;10.20;99.90
18654;DHT22;9456;47.824;16.228;2023-10-09T05:19:16;10.20;99.90
18654;DHT22;9456;47.824;16.228;2023-10-09T05:21:57;10.20;99.90
18654;DHT22;9456;47.824;16.228;2023-10-09T05:24:26;10.20;99.90
18654;DHT22;9456;47.824;16.228;2023-10-09T05:26:55;10.20;99.90
18654;DHT22;9456;47.824;16.228;2023-10-09T05:29:24;10.20;99.90
18654;DHT22;9456;47.824;16.228;2023-10-09T05:32:11;10.30;99.90
18654;DHT22;9456;47.824;16.228;2023-10-09T05:34:44;10.30;99.90
18654;DHT22;9456;47.824;16.228;2023-10-09T05:37:32;10.30;99.90
18654;DHT22;9456;47.824;16.228;2023-10-09T05:40:01;10.40;99.90
18654;DHT22;9456;47.824;16.228;2023-10-09T05:42:36;10.40;99.90
18654;DHT22;9456;47.824;16.228;2023-10-09T05:45:12;10.40;99.90
18654;DHT22;9456;47.824;16.228;2023-10-09T05:48:02;10.50;99.90
18654;DHT22;9456;47.824;16.228;2023-10-09T05:50:33;10.60;99.90
18654;DHT22;9456;47.824;16.228;2023-10-09T05:53:05;10.70;99.90
18654;DHT22;9456;47.824;16.228;2023-10-09T05:55:37;10.90;99.90
18654;DHT22;9456;47.824;16.228;2023-10-09T05:58:24;11.00;99.90
18654;DHT22;9456;47.824;16.228;2023-10-09T06:01:11;11.10;99.90
18654;DHT22;9456;47.824;16.228;2023-10-09T06:03:58;11.10;99.90
18654;DHT22;9456;47.824;16.228;2023-10-09T06:06:33;11.10;99.90
18654;DHT22;9456;47.824;16.228;2023-10-09T06:09:03;11.00;99.90
18654;DHT22;9456;47.824;16.228;2023-10-09T06:11:49;11.00;99.90
18654;DHT22;9456;47.824;16.228;2023-10-09T06:14:18;11.00;99.90
18654;DHT22;9456;47.824;16.228;2023-10-09T06:16:52;10.90;99.90
18654;DHT22;9456;47.824;16.228;2023-10-09T06:19:30;11.20;99.90
18654;DHT22;9456;47.824;16.228;2023-10-09T06:22:04;12.00;99.90
18654;DHT22;9456;47.824;16.228;2023-10-09T06:24:48;12.90;99.90
18654;DHT22;9456;47.824;16.228;2023-10-09T06:27:23;14.10;99.90
18654;DHT22;9456;47.824;16.228;2023-10-09T06:29:52;14.90;99.90
18654;DHT22;9456;47.824;16.228;2023-10-09T06:32:21;15.80;99.90
18654;DHT22;9456;47.824;16.228;2023-10-09T06:35:07;16.60;99.90
18654;DHT22;9456;47.824;16.228;2023-10-09T06:37:46;17.20;99.90
18654;DHT22;9456;47.824;16.228;2023-10-09T06:40:39;17.90;99.90
18654;DHT22;9456;47.824;16.228;2023-10-09T06:43:26;18.80;99.90
18654;DHT22;9456;47.824;16.228;2023-10-09T06:45:55;19.70;99.90
18654;DHT22;9456;47.824;16.228;2023-10-09T06:48:24;20.20;99.90
18654;DHT22;9456;47.824;16.228;2023-10-09T06:51:09;19.90;99.90
18654;DHT22;9456;47.824;16.228;2023-10-09T06:53:41;19.80;99.90
18654;DHT22;9456;47.824;16.228;2023-10-09T06:56:29;19.80;99.90
18654;DHT22;9456;47.824;16.228;2023-10-09T06:58:59;19.40;99.90
18654;DHT22;9456;47.824;16.228;2023-10-09T07:01:27;19.30;99.90
18654;DHT22;9456;47.824;16.228;2023-10-09T07:04:08;19.70;99.90
18654;DHT22;9456;47.824;16.228;2023-10-09T07:06:47;20.40;99.90
18654;DHT22;9456;47.824;16.228;2023-10-09T07:09:18;21.10;99.90
18654;DHT22;9456;47.824;16.228;2023-10-09T07:11:56;21.60;99.90
18654;DHT22;9456;47.824;16.228;2023-10-09T07:14:32;21.50;99.90
18654;DHT22;9456;47.824;16.228;2023-10-09T07:17:20;20.90;99.90
18654;DHT22;9456;47.824;16.228;2023-10-09T07:19:55;20.10;99.90
18654;DHT22;9456;47.824;16.228;2023-10-09T07:22:38;19.60;99.90
18654;DHT22;9456;47.824;16.228;2023-10-09T07:25:22;19.10;99.90
18654;DHT22;9456;47.824;16.228;2023-10-09T07:27:56;18.50;99.90
18654;DHT22;9456;47.824;16.228;2023-10-09T07:30:25;17.80;99.90
18654;DHT22;9456;47.824;16.228;2023-10-09T07:33:06;17.20;99.90
18654;DHT22;9456;47.824;16.228;2023-10-09T07:35:35;16.80;99.90
18654;DHT22;9456;47.824;16.228;2023-10-09T07:38:23;16.50;99.90
18654;DHT22;9456;47.824;16.228;2023-10-09T07:40:52;16.30;99.90
18654;DHT22;9456;47.824;16.228;2023-10-09T07:43:23;16.10;99.90
18654;DHT22;9456;47.824;16.228;2023-10-09T07:45:55;15.80;99.90
18654;DHT22;9456;47.824;16.228;2023-10-09T07:48:42;15.70;99.90
18654;DHT22;9456;47.824;16.228;2023-10-09T07:51:17;15.80;99.90
18654;DHT22;9456;47.824;16.228;2023-10-09T07:53:46;16.50;99.90
18654;DHT22;9456;47.824;16.228;2023-10-09T07:56:15;17.10;99.90
18654;DHT22;9456;47.824;16.228;2023-10-09T07:58:43;17.40;99.90
18654;DHT22;9456;47.824;16.228;2023-10-09T08:01:15;17.50;99.90
18654;DHT22;9456;47.824;16.228;2023-10-09T08:03:44;17.50;99.90
18654;DHT22;9456;47.824;16.228;2023-10-09T08:06:14;17.40;99.90
18654;DHT22;9456;47.824;16.228;2023-10-09T08:09:05;17.30;99.90
18654;DHT22;9456;47.824;16.228;2023-10-09T08:11:59;17.00;99.90
18654;DHT22;9456;47.824;16.228;2023-10-09T08:14:28;17.00;99.90
18654;DHT22;9456;47.824;16.228;2023-10-09T08:17:12;17.50;99.90
18654;DHT22;9456;47.824;16.228;2023-10-09T08:19:45;18.00;99.90
18654;DHT22;9456;47.824;16.228;2023-10-09T08:22:25;18.70;99.90
18654;DHT22;9456;47.824;16.228;2023-10-09T08:25:26;19.20;99.90
18654;DHT22;9456;47.824;16.228;2023-10-09T08:27:57;19.30;99.90
18654;DHT22;9456;47.824;16.228;2023-10-09T08:30:26;19.30;99.90
18654;DHT22;9456;47.824;16.228;2023-10-09T08:32:58;19.20;99.90
18654;DHT22;9456;47.824;16.228;2023-10-09T08:35:30;18.80;99.90
18654;DHT22;9456;47.824;16.228;2023-10-09T08:37:59;18.40;99.90
18654;DHT22;9456;47.824;16.228;2023-10-09T08:40:34;18.40;99.90
18654;DHT22;9456;47.824;16.228;2023-10-09T08:43:04;18.10;99.90
18654;DHT22;9456;47.824;16.228;2023-10-09T08:45:32;18.00;99.90
18654;DHT22;9456;47.824;16.228;2023-10-09T08:48:00;17.80;99.90
18654;DHT22;9456;47.824;16.228;2023-10-09T08:50:30;17.40;99.90
18654;DHT22;9456;47.824;16.228;2023-10-09T08:52:59;17.30;99.90
18654;DHT22;9456;47.824;16.228;2023-10-09T08:55:28;17.20;99.90
18654;DHT22;9456;47.824;16.228;2023-10-09T08:57:57;17.30;99.90
18654;DHT22;9456;47.824;16.228;2023-10-09T09:00:26;17.60;99.90
18654;DHT22;9456;47.824;16.228;2023-10-09T09:02:55;18.00;99.90
18654;DHT22;9456;47.824;16.228;2023-10-09T09:05:24;18.40;99.90
18654;DHT22;9456;47.824;16.228;2023-10-09T09:07:52;17.90;99.90
18654;DHT22;9456;47.824;16.228;2023-10-09T09:10:22;18.10;99.90
18654;DHT22;9456;47.824;16.228;2023-10-09T09:27:53;19.20;99.90
18654;DHT22;9456;47.824;16.228;2023-10-09T09:30:26;19.90;99.90
18654;DHT22;9456;47.824;16.228;2023-10-09T09:32:54;20.90;99.90
18654;DHT22;9456;47.824;16.228;2023-10-09T09:35:45;21.90;99.90
18654;DHT22;9456;47.824;16.228;2023-10-09T09:38:14;22.30;99.90
18654;DHT22;9456;47.824;16.228;2023-10-09T09:40:43;21.50;99.90
18654;DHT22;9456;47.824;16.228;2023-10-09T09:43:12;20.70;99.90
18654;DHT22;9456;47.824;16.228;2023-10-09T09:45:41;19.40;99.90
18654;DHT22;9456;47.824;16.228;2023-10-09T09:48:11;18.90;99.90
18654;DHT22;9456;47.824;16.228;2023-10-09T09:50:40;18.50;99.90
18654;DHT22;9456;47.824;16.228;2023-10-09T09:53:12;18.10;99.90
18654;DHT22;9456;47.824;16.228;2023-10-09T09:55:42;18.10;99.90
18654;DHT22;9456;47.824;16.228;2023-10-09T09:58:11;18.00;99.90
18654;DHT22;9456;47.824;16.228;2023-10-09T10:00:40;17.50;99.90
18654;DHT22;9456;47.824;16.228;2023-10-09T10:03:11;17.30;99.90
18654;DHT22;9456;47.824;16.228;2023-10-09T10:05:40;17.20;99.90
18654;DHT22;9456;47.824;16.228;2023-10-09T10:08:09;17.40;99.90
18654;DHT22;9456;47.824;16.228;2023-10-09T10:10:39;17.50;99.90
18654;DHT22;9456;47.824;16.228;2023-10-09T10:13:16;17.60;99.90
18654;DHT22;9456;47.824;16.228;2023-10-09T10:16:05;17.70;99.90
18654;DHT22;9456;47.824;16.228;2023-10-09T10:18:55;17.90;99.90
18654;DHT22;9456;47.824;16.228;2023-10-09T10:21:25;18.00;99.90
18654;DHT22;9456;47.824;16.228;2023-10-09T10:24:02;18.10;99.90
18654;DHT22;9456;47.824;16.228;2023-10-09T10:26:34;18.20;99.90
18654;DHT22;9456;47.824;16.228;2023-10-09T10:29:16;18.40;99.90
18654;DHT22;9456;47.824;16.228;2023-10-09T10:31:57;18.50;99.90
18654;DHT22;9456;47.824;16.228;2023-10-09T10:34:26;18.60;99.90
18654;DHT22;9456;47.824;16.228;2023-10-09T10:36:55;18.70;99.90
18654;DHT22;9456;47.824;16.228;2023-10-09T10:39:27;18.70;99.90
18654;DHT22;9456;47.824;16.228;2023-10-09T10:42:13;18.80;99.90
18654;DHT22;9456;47.824;16.228;2023-10-09T10:44:40;18.90;99.90
18654;DHT22;9456;47.824;16.228;2023-10-09T10:47:11;18.90;99.90
18654;DHT22;9456;47.824;16.228;2023-10-09T10:49:50;19.00;99.90
18654;DHT22;9456;47.824;16.228;2023-10-09T10:52:22;19.10;99.90
18654;DHT22;9456;47.824;16.228;2023-10-09T10:54:51;19.30;99.90
18654;DHT22;9456;47.824;16.228;2023-10-09T10:57:37;19.30;99.90
18654;DHT22;9456;47.824;16.228;2023-10-09T11:00:13;19.40;99.90
18654;DHT22;9456;47.824;16.228;2023-10-09T11:02:45;19.50;99.90
18654;DHT22;9456;47.824;16.228;2023-10-09T11:05:14;19.60;99.90
18654;DHT22;9456;47.824;16.228;2023-10-09T11:07:45;19.70;99.90
18654;DHT22;9456;47.824;16.228;2023-10-09T11:10:14;19.80;99.90
18654;DHT22;9456;47.824;16.228;2023-10-09T11:12:46;19.80;99.90
18654;DHT22;9456;47.824;16.228;2023-10-09T11:15:32;19.90;99.90
18654;DHT22;9456;47.824;16.228;2023-10-09T11:18:05;20.00;99.90
18654;DHT22;9456;47.824;16.228;2023-10-09T11:20:34;20.20;99.90
18654;DHT22;9456;47.824;16.228;2023-10-09T11:23:04;20.30;99.90
18654;DHT22;9456;47.824;16.228;2023-10-09T11:25:44;20.20;99.90
18654;DHT22;9456;47.824;16.228;2023-10-09T11:28:22;20.20;99.90
18654;DHT22;9456;47.824;16.228;2023-10-09T11:31:08;20.40;99.90
18654;DHT22;9456;47.824;16.228;2023-10-09T11:33:47;20.80;99.90
18654;DHT22;9456;47.824;16.228;2023-10-09T11:36:16;21.10;99.90
18654;DHT22;9456;47.824;16.228;2023-10-09T11:38:45;21.20;99.90
18654;DHT22;9456;47.824;16.228;2023-10-09T11:41:14;21.40;99.90
18654;DHT22;9456;47.824;16.228;2023-10-09T11:43:52;21.80;99.90
18654;DHT22;9456;47.824;16.228;2023-10-09T11:46:21;22.30;99.90
18654;DHT22;9456;47.824;16.228;2023-10-09T11:49:17;22.60;99.90
18654;DHT22;9456;47.824;16.228;2023-10-09T11:51:54;23.00;99.90
18654;DHT22;9456;47.824;16.228;2023-10-09T11:54:39;23.20;99.90
18654;DHT22;9456;47.824;16.228;2023-10-09T11:57:08;23.30;99.90
18654;DHT22;9456;47.824;16.228;2023-10-09T11:59:37;23.30;99.90
18654;DHT22;9456;47.824;16.228;2023-10-09T12:02:08;23.50;99.90
18654;DHT22;9456;47.824;16.228;2023-10-09T12:04:35;23.60;99.90
18654;DHT22;9456;47.824;16.228;2023-10-09T12:07:08;23.60;99.90
18654;DHT22;9456;47.824;16.228;2023-10-09T12:09:37;23.60;99.90
18654;DHT22;9456;47.824;16.228;2023-10-09T12:12:08;23.50;99.90
18654;DHT22;9456;47.824;16.228;2023-10-09T12:14:37;23.30;99.90
18654;DHT22;9456;47.824;16.228;2023-10-09T12:17:06;23.20;99.90
18654;DHT22;9456;47.824;16.228;2023-10-09T12:19:35;23.00;99.90
18654;DHT22;9456;47.824;16.228;2023-10-09T12:22:04;22.80;99.90
18654;DHT22;9456;47.824;16.228;2023-10-09T12:24:33;22.60;99.90
18654;DHT22;9456;47.824;16.228;2023-10-09T12:27:02;22.40;99.90
18654;DHT22;9456;47.824;16.228;2023-10-09T12:29:31;22.20;99.90
18654;DHT22;9456;47.824;16.228;2023-10-09T12:32:00;21.90;99.90
18654;DHT22;9456;47.824;16.228;2023-10-09T12:34:29;21.70;99.90
18654;DHT22;9456;47.824;16.228;2023-10-09T12:36:58;21.50;99.90
18654;DHT22;9456;47.824;16.228;2023-10-09T12:39:27;21.50;99.90
18654;DHT22;9456;47.824;16.228;2023-10-09T12:41:56;21.60;99.90
18654;DHT22;9456;47.824;16.228;2023-10-09T12:44:25;21.60;99.90
18654;DHT22;9456;47.824;16.228;2023-10-09T12:46:54;21.60;99.90
18654;DHT22;9456;47.824;16.228;2023-10-09T12:49:23;21.50;99.90
18654;DHT22;9456;47.824;16.228;2023-10-09T12:51:53;21.50;99.90
18654;DHT22;9456;47.824;16.228;2023-10-09T12:54:22;21.50;99.90
18654;DHT22;9456;47.824;16.228;2023-10-09T12:56:52;21.60;99.90
18654;DHT22;9456;47.824;16.228;2023-10-09T12:59:21;21.60;99.90
18654;DHT22;9456;47.824;16.228;2023-10-09T13:01:50;21.60;99.90
18654;DHT22;9456;47.824;16.228;2023-10-09T13:04:19;21.70;99.90
18654;DHT22;9456;47.824;16.228;2023-10-09T13:06:50;21.70;99.90
18654;DHT22;9456;47.824;16.228;2023-10-09T13:09:19;21.70;99.90
18654;DHT22;9456;47.824;16.228;2023-10-09T13:11:49;21.60;99.90
18654;DHT22;9456;47.824;16.228;2023-10-09T13:14:18;21.60;99.90
18654;DHT22;9456;47.824;16.228;2023-10-09T13:16:47;21.60;99.90
18654;DHT22;9456;47.824;16.228;2023-10-09T13:19:16;21.70;99.90
18654;DHT22;9456;47.824;16.228;2023-10-09T13:21:45;21.70;99.90
18654;DHT22;9456;47.824;16.228;2023-10-09T13:24:13;21.80;99.90
18654;DHT22;9456;47.824;16.228;2023-10-09T13:26:42;21.80;99.90
18654;DHT22;9456;47.824;16.228;2023-10-09T13:29:11;21.80;99.90
18654;DHT22;9456;47.824;16.228;2023-10-09T13:31:40;21.80;99.90
18654;DHT22;9456;47.824;16.228;2023-10-09T13:34:15;21.80;99.90
18654;DHT22;9456;47.824;16.228;2023-10-09T13:36:44;21.60;99.90
18654;DHT22;9456;47.824;16.228;2023-10-09T13:39:14;21.10;99.90
18654;DHT22;9456;47.824;16.228;2023-10-09T13:41:52;20.70;99.90
18654;DHT22;9456;47.824;16.228;2023-10-09T13:44:22;20.60;99.90
18654;DHT22;9456;47.824;16.228;2023-10-09T13:46:51;20.50;99.90
18654;DHT22;9456;47.824;16.228;2023-10-09T13:49:20;20.50;99.90
18654;DHT22;9456;47.824;16.228;2023-10-09T13:51:49;20.70;99.90
18654;DHT22;9456;47.824;16.228;2023-10-09T13:54:18;21.00;99.90
18654;DHT22;9456;47.824;16.228;2023-10-09T13:56:49;21.30;99.90
18654;DHT22;9456;47.824;16.228;2023-10-09T13:59:19;21.40;99.90
18654;DHT22;9456;47.824;16.228;2023-10-09T14:01:48;21.40;99.90
18654;DHT22;9456;47.824;16.228;2023-10-09T14:04:17;21.30;99.90
18654;DHT22;9456;47.824;16.228;2023-10-09T14:06:46;21.30;99.90
18654;DHT22;9456;47.824;16.228;2023-10-09T14:09:15;21.20;99.90
18654;DHT22;9456;47.824;16.228;2023-10-09T14:11:57;21.20;99.90
18654;DHT22;9456;47.824;16.228;2023-10-09T14:14:27;21.10;99.90
18654;DHT22;9456;47.824;16.228;2023-10-09T14:16:56;20.90;99.90
18654;DHT22;9456;47.824;16.228;2023-10-09T14:19:25;20.80;99.90
18654;DHT22;9456;47.824;16.228;2023-10-09T14:21:54;20.70;99.90
18654;DHT22;9456;47.824;16.228;2023-10-09T14:24:23;20.80;99.90
18654;DHT22;9456;47.824;16.228;2023-10-09T14:26:51;21.00;99.90
18654;DHT22;9456;47.824;16.228;2023-10-09T14:29:20;21.40;99.90
18654;DHT22;9456;47.824;16.228;2023-10-09T14:31:49;21.70;99.90
18654;DHT22;9456;47.824;16.228;2023-10-09T14:34:18;22.00;99.90
18654;DHT22;9456;47.824;16.228;2023-10-09T14:36:48;22.20;99.90
18654;DHT22;9456;47.824;16.228;2023-10-09T14:39:17;22.30;99.90
18654;DHT22;9456;47.824;16.228;2023-10-09T14:41:46;22.30;99.90
18654;DHT22;9456;47.824;16.228;2023-10-09T14:44:15;22.40;99.90
18654;DHT22;9456;47.824;16.228;2023-10-09T14:46:48;22.50;99.90
18654;DHT22;9456;47.824;16.228;2023-10-09T14:49:17;22.50;99.90
18654;DHT22;9456;47.824;16.228;2023-10-09T14:51:46;22.50;99.90
18654;DHT22;9456;47.824;16.228;2023-10-09T14:54:14;22.60;99.90
18654;DHT22;9456;47.824;16.228;2023-10-09T14:56:44;22.60;99.90
18654;DHT22;9456;47.824;16.228;2023-10-09T14:59:13;22.50;99.90
18654;DHT22;9456;47.824;16.228;2023-10-09T15:01:42;22.40;99.90
18654;DHT22;9456;47.824;16.228;2023-10-09T15:04:10;22.10;99.90
18654;DHT22;9456;47.824;16.228;2023-10-09T15:06:39;21.90;99.90
18654;DHT22;9456;47.824;16.228;2023-10-09T15:09:08;21.70;99.90
18654;DHT22;9456;47.824;16.228;2023-10-09T15:11:37;21.50;99.90
18654;DHT22;9456;47.824;16.228;2023-10-09T15:14:07;21.40;99.90
18654;DHT22;9456;47.824;16.228;2023-10-09T15:16:36;21.40;99.90
18654;DHT22;9456;47.824;16.228;2023-10-09T15:19:05;21.20;99.90
18654;DHT22;9456;47.824;16.228;2023-10-09T15:21:34;21.10;99.90
18654;DHT22;9456;47.824;16.228;2023-10-09T15:24:07;21.00;99.90
18654;DHT22;9456;47.824;16.228;2023-10-09T15:26:36;20.90;99.90
18654;DHT22;9456;47.824;16.228;2023-10-09T15:29:05;20.80;99.90
18654;DHT22;9456;47.824;16.228;2023-10-09T15:31:35;20.60;99.90
18654;DHT22;9456;47.824;16.228;2023-10-09T15:34:04;20.40;99.90
18654;DHT22;9456;47.824;16.228;2023-10-09T15:36:34;20.30;99.90
18654;DHT22;9456;47.824;16.228;2023-10-09T15:39:03;20.10;99.90
18654;DHT22;9456;47.824;16.228;2023-10-09T15:41:31;20.00;99.90
18654;DHT22;9456;47.824;16.228;2023-10-09T15:44:00;19.90;99.90
18654;DHT22;9456;47.824;16.228;2023-10-09T15:46:29;19.70;99.90
18654;DHT22;9456;47.824;16.228;2023-10-09T15:48:59;19.70;99.90
18654;DHT22;9456;47.824;16.228;2023-10-09T15:51:29;19.60;99.90
18654;DHT22;9456;47.824;16.228;2023-10-09T15:53:59;19.50;99.90
18654;DHT22;9456;47.824;16.228;2023-10-09T15:56:33;19.40;99.90
18654;DHT22;9456;47.824;16.228;2023-10-09T15:59:03;19.30;99.90
18654;DHT22;9456;47.824;16.228;2023-10-09T16:01:33;19.30;99.90
18654;DHT22;9456;47.824;16.228;2023-10-09T16:04:03;19.20;99.90
18654;DHT22;9456;47.824;16.228;2023-10-09T16:06:33;19.20;99.90
18654;DHT22;9456;47.824;16.228;2023-10-09T16:09:03;19.20;99.90
18654;DHT22;9456;47.824;16.228;2023-10-09T16:11:32;19.10;99.90
18654;DHT22;9456;47.824;16.228;2023-10-09T16:14:02;19.10;99.90
18654;DHT22;9456;47.824;16.228;2023-10-09T16:16:31;19.10;99.90
18654;DHT22;9456;47.824;16.228;2023-10-09T16:19:00;19.10;99.90
18654;DHT22;9456;47.824;16.228;2023-10-09T16:21:29;19.00;99.90
18654;DHT22;9456;47.824;16.228;2023-10-09T16:23:58;19.00;99.90
18654;DHT22;9456;47.824;16.228;2023-10-09T16:26:28;18.90;99.90
18654;DHT22;9456;47.824;16.228;2023-10-09T16:28:57;18.80;99.90